LQSA/SJJ METAR and TAF weather

Enter ICAO airport designator
Station Type Date Time Source
LQSA METAR 2024/02/26 17:00 UTC NOAA

LQSA 261700Z 14003KT 120V190 9999 SCT065 13/07 Q1007 NOSIG


Station Type Date Time Source
LQSA Decoded METAR 2024/02/26 17:00 UTC NOAA

Sarajevo, Bosnia and Herzegovina (LQSA) 43-49N 018-20E 510M
Feb 26, 2024 - 12:00 PM EST / 2024.02.26 1700 UTC
Wind: from the SE (140 degrees) at 3 MPH (3 KT) (direction variable):0
Visibility: greater than 7 mile(s):0
Sky conditions: partly cloudy
Temperature: 55 F (13 C)
Dew Point: 44 F (7 C)
Relative Humidity: 66%
Pressure (altimeter): 29.74 in. Hg (1007 hPa)
ob: LQSA 261700Z 14003KT 120V190 9999 SCT065 13/07 Q1007 NOSIG
cycle: 17

Station Type Date Time Source
LQSA TAF 2024/02/26 18:08 UTC NOAA